createdAt,value
2019-05-10T00:01:38.764Z,4.47
2019-05-10T00:04:24.839Z,5.80
2019-05-10T00:07:11.145Z,5.85
2019-05-10T00:09:38.341Z,6.47
2019-05-10T00:12:14.954Z,6.90
2019-05-10T00:14:51.228Z,8.43
2019-05-10T00:17:20.429Z,6.85
2019-05-10T00:19:48.226Z,5.80
2019-05-10T00:22:17.079Z,5.60
2019-05-10T00:25:00.789Z,5.37
2019-05-10T00:27:14.499Z,6.42
2019-05-10T00:29:42.167Z,6.72
2019-05-10T00:32:09.827Z,7.12
2019-05-10T00:34:37.648Z,9.10
2019-05-10T00:37:05.439Z,5.40
2019-05-10T00:39:33.273Z,5.08
2019-05-10T00:42:01.036Z,6.60
2019-05-10T00:44:28.712Z,7.03
2019-05-10T00:46:56.406Z,6.67
2019-05-10T00:49:24.150Z,6.10
2019-05-10T00:51:51.801Z,4.47
2019-05-10T00:54:20.623Z,7.17
2019-05-10T00:56:48.260Z,6.00
2019-05-10T00:59:16.028Z,5.25
2019-05-10T01:01:43.654Z,5.12
2019-05-10T01:04:11.330Z,4.72
2019-05-10T01:06:39.094Z,6.17
2019-05-10T01:09:06.906Z,4.58
2019-05-10T01:11:34.568Z,6.95
2019-05-10T01:14:02.080Z,5.22
2019-05-10T01:16:29.707Z,6.05
2019-05-10T01:18:57.531Z,4.05
2019-05-10T01:21:25.340Z,4.70
2019-05-10T01:23:53.059Z,6.25
2019-05-10T01:26:22.302Z,6.33
2019-05-10T01:28:49.911Z,5.30
2019-05-10T01:31:17.835Z,8.98
2019-05-10T01:33:45.531Z,5.28
2019-05-10T01:36:13.159Z,6.87
2019-05-10T01:38:41.073Z,5.05
2019-05-10T01:41:08.734Z,6.47
2019-05-10T01:43:36.362Z,7.67
2019-05-10T01:46:04.171Z,6.75
2019-05-10T01:48:31.873Z,5.12
2019-05-10T01:50:59.502Z,5.20
2019-05-10T01:53:27.249Z,5.20
2019-05-10T01:55:54.932Z,6.58
2019-05-10T01:58:22.795Z,6.75
2019-05-10T02:00:50.486Z,7.50
2019-05-10T02:03:18.233Z,8.45
2019-05-10T02:05:45.985Z,8.18
2019-05-10T02:08:13.736Z,7.78
2019-05-10T02:10:41.390Z,8.15
2019-05-10T02:13:08.930Z,9.70
2019-05-10T02:15:37.080Z,6.75
2019-05-10T02:18:04.910Z,6.85
2019-05-10T02:20:32.584Z,6.65
2019-05-10T02:23:00.386Z,8.73
2019-05-10T02:25:28.065Z,6.25
2019-05-10T02:27:55.729Z,8.88
2019-05-10T02:30:23.603Z,8.40
2019-05-10T02:32:51.264Z,6.12
2019-05-10T02:35:19.179Z,7.80
2019-05-10T02:37:46.820Z,8.33
2019-05-10T02:40:14.630Z,8.15
2019-05-10T02:42:42.533Z,6.05
2019-05-10T02:45:10.557Z,8.53
2019-05-10T02:47:38.279Z,13.22
2019-05-10T02:50:06.224Z,6.87
2019-05-10T02:52:33.930Z,8.58
2019-05-10T02:55:02.487Z,7.90
2019-05-10T02:57:30.655Z,8.50
2019-05-10T03:00:03.432Z,7.22
2019-05-10T03:02:35.421Z,6.80
2019-05-10T03:05:03.712Z,11.12
2019-05-10T03:07:35.890Z,9.40
2019-05-10T03:10:04.456Z,10.95
2019-05-10T03:12:33.914Z,9.80
2019-05-10T03:15:03.817Z,12.78
2019-05-10T03:17:31.459Z,8.88
2019-05-10T03:20:01.620Z,8.35
2019-05-10T03:22:32.911Z,13.72
2019-05-10T03:25:00.683Z,8.83
2019-05-10T03:27:28.246Z,9.43
2019-05-10T03:29:56.046Z,11.28
2019-05-10T03:32:23.580Z,8.83
2019-05-10T03:34:51.317Z,10.70
2019-05-10T03:37:19.197Z,11.40
2019-05-10T03:39:47.345Z,8.28
2019-05-10T03:42:15.308Z,10.05
2019-05-10T03:44:43.148Z,11.97
2019-05-10T03:47:10.765Z,11.53
2019-05-10T03:49:38.451Z,9.48
2019-05-10T03:52:06.260Z,10.05
2019-05-10T03:54:33.951Z,8.58
2019-05-10T03:57:12.873Z,10.18
2019-05-10T03:59:31.191Z,10.05
2019-05-10T04:01:59.034Z,7.42
2019-05-10T04:04:26.689Z,7.03
2019-05-10T04:06:54.484Z,10.43
2019-05-10T04:09:23.187Z,9.53
2019-05-10T04:11:50.898Z,10.32
2019-05-10T04:14:18.621Z,9.53
2019-05-10T04:16:46.341Z,10.18
2019-05-10T04:19:13.989Z,8.85
2019-05-10T04:21:45.025Z,9.88
2019-05-10T04:24:12.646Z,9.05
2019-05-10T04:26:40.324Z,9.83
2019-05-10T04:29:08.162Z,9.25
2019-05-10T04:31:36.398Z,11.03
2019-05-10T04:34:04.025Z,12.25
2019-05-10T04:36:31.780Z,10.58
2019-05-10T04:38:59.486Z,8.18
2019-05-10T04:41:27.121Z,8.50
2019-05-10T04:43:54.984Z,8.08
2019-05-10T04:46:23.110Z,8.58
2019-05-10T04:48:50.887Z,7.22
2019-05-10T04:51:18.730Z,13.20
2019-05-10T04:53:46.356Z,8.35
2019-05-10T04:56:14.145Z,9.75
2019-05-10T04:58:41.874Z,9.98
2019-05-10T05:01:09.875Z,7.95
2019-05-10T05:03:37.695Z,9.05
2019-05-10T05:06:05.551Z,9.63
2019-05-10T05:08:33.321Z,9.05
2019-05-10T05:11:01.202Z,7.67
2019-05-10T05:13:29.104Z,13.08
2019-05-10T05:15:56.843Z,11.53
2019-05-10T05:18:24.532Z,8.53
2019-05-10T05:20:52.244Z,10.00
2019-05-10T05:23:19.964Z,6.50
2019-05-10T05:25:47.654Z,6.90
2019-05-10T05:28:18.384Z,7.25
2019-05-10T05:30:46.299Z,7.25
2019-05-10T05:33:14.199Z,7.72
2019-05-10T05:35:42.038Z,9.65
2019-05-10T05:38:09.835Z,8.78
2019-05-10T05:40:37.516Z,6.83
2019-05-10T05:43:08.215Z,8.45
2019-05-10T05:45:35.697Z,7.65
2019-05-10T05:48:03.527Z,6.05
2019-05-10T05:50:31.062Z,6.40
2019-05-10T05:52:59.744Z,7.62
2019-05-10T05:55:30.717Z,7.97
2019-05-10T05:57:59.268Z,5.90
2019-05-10T06:00:26.569Z,8.90
2019-05-10T06:02:54.237Z,7.45
2019-05-10T06:05:33.979Z,9.03
2019-05-10T06:07:52.458Z,10.10
2019-05-10T06:10:20.389Z,11.25
2019-05-10T06:12:50.500Z,7.72
2019-05-10T06:15:22.933Z,9.63
2019-05-10T06:17:56.153Z,8.25
2019-05-10T06:20:17.109Z,7.83
2019-05-10T06:23:05.224Z,7.75
2019-05-10T06:25:15.910Z,6.20
2019-05-10T06:27:43.736Z,5.10
2019-05-10T06:30:11.830Z,9.65
2019-05-10T06:32:40.591Z,8.75
2019-05-10T06:35:14.097Z,8.15
2019-05-10T06:37:38.338Z,9.58
2019-05-10T06:40:06.712Z,10.45
2019-05-10T06:42:36.168Z,9.45
2019-05-10T06:45:14.047Z,7.65
2019-05-10T06:47:35.178Z,6.60
2019-05-10T06:50:03.703Z,7.25
2019-05-10T06:52:31.416Z,8.48
2019-05-10T06:54:59.462Z,9.43
2019-05-10T06:57:27.303Z,8.70
2019-05-10T06:59:56.979Z,9.23
2019-05-10T07:02:26.743Z,8.35
2019-05-10T07:04:54.117Z,7.50
2019-05-10T07:07:42.734Z,9.08
2019-05-10T07:10:17.734Z,7.37
2019-05-10T07:12:21.060Z,9.90
2019-05-10T07:14:49.436Z,8.35
2019-05-10T07:17:17.302Z,11.53
2019-05-10T07:19:53.505Z,7.83
2019-05-10T07:22:14.827Z,6.85
2019-05-10T07:24:42.523Z,9.78
2019-05-10T07:27:10.298Z,6.62
2019-05-10T07:29:43.398Z,9.43
2019-05-10T07:32:07.558Z,6.17
2019-05-10T07:34:35.213Z,5.72
2019-05-10T07:37:03.138Z,6.17
2019-05-10T07:39:31.126Z,6.05
2019-05-10T07:42:00.501Z,7.35
2019-05-10T07:44:28.556Z,5.60
2019-05-10T07:46:58.527Z,6.92
2019-05-10T07:49:30.101Z,9.38
2019-05-10T07:51:55.495Z,14.85
2019-05-10T07:54:23.161Z,5.80
2019-05-10T07:56:50.911Z,5.50
2019-05-10T07:59:22.020Z,8.20
2019-05-10T08:01:49.098Z,8.58
2019-05-10T08:04:19.750Z,7.05
2019-05-10T08:06:48.643Z,9.30
2019-05-10T08:09:19.060Z,5.25
2019-05-10T08:11:48.335Z,5.22
2019-05-10T08:14:16.003Z,5.50
2019-05-10T08:16:43.726Z,7.37
2019-05-10T08:19:11.394Z,5.47
2019-05-10T08:21:39.094Z,7.25
2019-05-10T08:24:13.468Z,4.95
2019-05-10T08:26:36.379Z,7.20
2019-05-10T08:29:07.755Z,5.62
2019-05-10T08:31:40.539Z,5.60
2019-05-10T08:34:03.395Z,6.08
2019-05-10T08:36:32.188Z,4.78
2019-05-10T08:39:10.014Z,7.58
2019-05-10T08:41:32.563Z,6.90
2019-05-10T08:44:04.559Z,6.35
2019-05-10T08:46:40.074Z,3.62
2019-05-10T08:49:01.941Z,7.00
2019-05-10T08:51:29.359Z,4.12
2019-05-10T08:53:58.332Z,5.22
2019-05-10T08:56:26.273Z,7.40
2019-05-10T08:58:53.990Z,5.08
2019-05-10T09:01:29.692Z,4.92
2019-05-10T09:03:55.204Z,4.12
2019-05-10T09:06:22.074Z,6.33
2019-05-10T09:08:52.883Z,4.47
2019-05-10T09:11:19.655Z,5.67
2019-05-10T09:13:47.358Z,5.78
2019-05-10T09:16:23.725Z,4.90
2019-05-10T09:18:53.398Z,5.80
2019-05-10T09:21:22.366Z,4.42
2019-05-10T09:23:58.279Z,4.17
2019-05-10T09:26:19.677Z,4.17
2019-05-10T09:28:52.265Z,4.75
2019-05-10T09:31:22.026Z,3.10
2019-05-10T09:33:49.439Z,5.20
2019-05-10T09:36:16.580Z,4.95
2019-05-10T09:38:46.313Z,3.70
2019-05-10T09:41:13.844Z,5.20
2019-05-10T09:43:48.309Z,3.05
2019-05-10T09:46:14.191Z,2.55
2019-05-10T09:48:45.072Z,3.50
2019-05-10T09:51:13.741Z,2.67
2019-05-10T09:53:41.717Z,5.97
2019-05-10T09:56:09.702Z,4.35
2019-05-10T09:58:38.648Z,3.95
2019-05-10T10:01:14.654Z,2.87
2019-05-10T10:03:43.225Z,5.28
2019-05-10T10:06:10.779Z,4.37
2019-05-10T10:08:38.277Z,3.60
2019-05-10T10:11:11.542Z,4.35
2019-05-10T10:13:42.042Z,4.50
2019-05-10T10:16:12.610Z,3.58
2019-05-10T10:18:36.936Z,3.22
2019-05-10T10:21:04.003Z,3.90
2019-05-10T10:23:34.796Z,4.25
2019-05-10T10:26:01.504Z,3.77
2019-05-10T10:28:29.214Z,4.62
2019-05-10T10:31:03.273Z,4.50
2019-05-10T10:33:29.111Z,3.47
2019-05-10T10:36:04.737Z,5.10
2019-05-10T10:38:30.364Z,3.65
2019-05-10T10:40:57.576Z,3.62
2019-05-10T10:43:27.255Z,3.40
2019-05-10T10:45:57.218Z,1.82
2019-05-10T10:48:24.570Z,3.37
2019-05-10T10:50:55.667Z,7.08
2019-05-10T10:53:22.186Z,3.52
2019-05-10T10:55:54.438Z,4.30
2019-05-10T10:58:23.991Z,3.35
2019-05-10T11:00:51.738Z,3.20
2019-05-10T11:03:23.857Z,2.30
2019-05-10T11:05:49.170Z,2.77
2019-05-10T11:08:17.075Z,4.25
2019-05-10T11:10:44.743Z,4.00
2019-05-10T11:13:20.314Z,2.37
2019-05-10T11:15:42.219Z,3.90
2019-05-10T11:18:09.752Z,3.55
2019-05-10T11:20:42.046Z,4.20
2019-05-10T11:23:10.549Z,2.55
2019-05-10T11:25:42.770Z,2.67
2019-05-10T11:28:09.115Z,2.62
2019-05-10T11:30:36.812Z,4.35
2019-05-10T11:33:04.662Z,3.35
2019-05-10T11:35:34.629Z,2.58
2019-05-10T11:38:06.560Z,3.15
2019-05-10T11:40:34.913Z,3.35
2019-05-10T11:43:01.577Z,2.80
2019-05-10T11:45:34.494Z,3.87
2019-05-10T11:48:02.090Z,2.15
2019-05-10T11:50:34.975Z,3.00
2019-05-10T11:53:00.897Z,2.87
2019-05-10T11:55:28.488Z,2.83
2019-05-10T11:58:03.008Z,7.10
2019-05-10T12:00:31.941Z,3.70
2019-05-10T12:03:07.070Z,3.58
2019-05-10T12:07:55.146Z,2.25
2019-05-10T12:10:25.583Z,4.17
2019-05-10T12:13:06.089Z,4.40
2019-05-10T12:15:25.405Z,2.87
2019-05-10T12:17:58.998Z,4.33
2019-05-10T12:20:39.526Z,4.45
2019-05-10T12:22:53.213Z,1.98
2019-05-10T12:25:37.743Z,5.30
2019-05-10T12:26:15.903Z,2.60
2019-05-10T12:27:52.365Z,2.33
2019-05-10T12:30:21.526Z,2.65
2019-05-10T12:33:05.071Z,1.25
2019-05-10T12:35:21.326Z,3.75
2019-05-10T12:37:53.868Z,6.58
2019-05-10T12:40:18.603Z,4.83
2019-05-10T12:42:47.151Z,2.72
2019-05-10T12:45:15.282Z,2.33
2019-05-10T12:47:43.050Z,2.17
2019-05-10T12:50:11.613Z,2.17
2019-05-10T12:52:39.467Z,3.55
2019-05-10T12:55:07.330Z,8.00
2019-05-10T12:57:35.065Z,3.58
2019-05-10T13:00:06.692Z,2.85
2019-05-10T13:02:34.572Z,2.70
2019-05-10T13:05:02.544Z,2.35
2019-05-10T13:07:30.383Z,1.75
2019-05-10T13:10:04.234Z,3.77
2019-05-10T13:12:27.786Z,3.35
2019-05-10T13:14:55.525Z,2.85
2019-05-10T13:17:23.379Z,4.15
2019-05-10T13:19:52.690Z,2.25
2019-05-10T13:22:22.577Z,4.08
2019-05-10T13:24:50.190Z,2.75
2019-05-10T13:27:17.947Z,2.52
2019-05-10T13:29:52.805Z,2.30
2019-05-10T13:32:20.616Z,2.00
2019-05-10T13:34:46.407Z,3.77
2019-05-10T13:37:23.181Z,1.80
2019-05-10T13:39:43.763Z,2.67
2019-05-10T13:42:11.409Z,2.72
2019-05-10T13:44:42.916Z,1.02
2019-05-10T13:47:11.085Z,4.12
2019-05-10T13:49:38.675Z,3.20
2019-05-10T13:52:06.432Z,5.00
2019-05-10T13:54:36.189Z,2.87
2019-05-10T13:57:06.610Z,3.12
2019-05-10T13:59:34.582Z,1.80
2019-05-10T14:02:02.259Z,1.40
2019-05-10T14:04:33.875Z,2.85
2019-05-10T14:07:00.840Z,2.37
2019-05-10T14:09:28.439Z,1.72
2019-05-10T14:11:56.274Z,3.80
2019-05-10T14:14:26.767Z,2.02
2019-05-10T14:16:54.539Z,2.25
2019-05-10T14:19:23.311Z,2.17
2019-05-10T14:21:52.960Z,2.40
2019-05-10T14:24:20.696Z,2.22
2019-05-10T14:26:51.425Z,2.70
2019-05-10T14:29:19.271Z,2.72
2019-05-10T14:31:47.042Z,1.02
2019-05-10T14:34:15.706Z,4.20
2019-05-10T14:36:43.712Z,1.75
2019-05-10T14:39:11.476Z,2.47
2019-05-10T14:41:40.061Z,4.33
2019-05-10T14:44:07.963Z,3.30
2019-05-10T14:46:35.794Z,1.45
2019-05-10T14:49:09.622Z,4.37
2019-05-10T14:51:49.613Z,3.95
2019-05-10T14:54:06.685Z,3.00
2019-05-10T14:56:33.389Z,1.82
2019-05-10T14:59:01.034Z,2.72
2019-05-10T15:01:28.718Z,2.87
2019-05-10T15:03:57.546Z,1.37
2019-05-10T15:06:25.175Z,1.98
2019-05-10T15:08:52.941Z,2.58
2019-05-10T15:11:20.549Z,2.83
2019-05-10T15:13:48.249Z,3.62
2019-05-10T15:16:26.154Z,2.20
2019-05-10T15:18:46.690Z,1.62
2019-05-10T15:21:14.412Z,4.15
2019-05-10T15:23:42.103Z,2.87
2019-05-10T15:26:12.243Z,3.12
2019-05-10T15:28:42.122Z,3.17
2019-05-10T15:31:11.517Z,5.25
2019-05-10T15:33:39.240Z,2.02
2019-05-10T15:36:07.047Z,4.17
2019-05-10T15:38:40.534Z,2.15
2019-05-10T15:41:04.394Z,3.90
2019-05-10T15:43:32.042Z,1.80
2019-05-10T15:45:59.700Z,2.37
2019-05-10T15:48:27.481Z,2.52
2019-05-10T15:50:55.088Z,2.40
2019-05-10T15:53:25.470Z,2.42
2019-05-10T15:55:52.424Z,2.33
2019-05-10T15:58:20.079Z,2.92
2019-05-10T16:00:48.011Z,1.85
2019-05-10T16:03:15.677Z,3.87
2019-05-10T16:05:44.217Z,2.58
2019-05-10T16:08:13.750Z,2.40
2019-05-10T16:10:42.690Z,2.67
2019-05-10T16:13:14.556Z,2.80
2019-05-10T16:15:39.922Z,2.95
2019-05-10T16:18:07.690Z,3.00
2019-05-10T16:20:37.277Z,4.72
2019-05-10T16:23:08.763Z,3.25
2019-05-10T16:25:41.607Z,2.95
2019-05-10T16:28:05.275Z,3.10
2019-05-10T16:30:36.375Z,3.98
2019-05-10T16:33:02.797Z,1.55
2019-05-10T16:35:38.399Z,1.77
2019-05-10T16:38:00.149Z,2.02
2019-05-10T16:40:27.983Z,2.72
2019-05-10T16:42:55.712Z,2.37
2019-05-10T16:45:23.449Z,1.37
2019-05-10T16:47:51.318Z,2.45
2019-05-10T16:50:18.970Z,1.47
2019-05-10T16:52:46.662Z,2.52
2019-05-10T16:55:14.439Z,2.30
2019-05-10T16:57:42.121Z,2.40
2019-05-10T17:00:10.715Z,2.12
2019-05-10T17:02:42.020Z,5.28
2019-05-10T17:05:14.944Z,3.33
2019-05-10T17:07:39.097Z,2.00
2019-05-10T17:10:06.862Z,2.92
2019-05-10T17:12:34.729Z,1.95
2019-05-10T17:15:03.284Z,3.83
2019-05-10T17:17:36.930Z,3.67
2019-05-10T17:20:07.387Z,3.22
2019-05-10T17:22:31.597Z,2.70
2019-05-10T17:25:03.259Z,1.80
2019-05-10T17:27:29.040Z,3.75
2019-05-10T17:29:56.873Z,1.30
2019-05-10T17:32:26.682Z,2.05
2019-05-10T17:34:54.237Z,2.92
2019-05-10T17:37:22.116Z,4.25
2019-05-10T17:39:49.979Z,5.95
2019-05-10T17:42:17.781Z,3.27
2019-05-10T17:44:45.646Z,3.05
2019-05-10T17:47:13.356Z,2.62
2019-05-10T17:49:41.122Z,3.20
2019-05-10T17:52:08.930Z,2.92
2019-05-10T17:54:39.243Z,3.35
2019-05-10T17:57:10.829Z,2.37
2019-05-10T17:59:37.455Z,2.77
2019-05-10T18:02:05.190Z,4.85
2019-05-10T18:04:33.023Z,3.70
2019-05-10T18:07:00.666Z,3.27
2019-05-10T18:09:28.461Z,5.05
2019-05-10T18:11:56.095Z,3.30
2019-05-10T18:14:23.860Z,5.35
2019-05-10T18:16:51.799Z,4.83
2019-05-10T18:19:24.901Z,5.03
2019-05-10T18:21:48.998Z,3.85
2019-05-10T18:24:16.939Z,3.05
2019-05-10T18:26:44.676Z,4.55
2019-05-10T18:29:12.333Z,4.12
2019-05-10T18:31:40.108Z,4.30
2019-05-10T18:34:07.730Z,4.05
2019-05-10T18:36:51.029Z,4.97
2019-05-10T18:39:08.985Z,3.47
2019-05-10T18:41:36.346Z,2.70
2019-05-10T18:44:04.070Z,3.20
2019-05-10T18:46:31.870Z,3.60
2019-05-10T18:48:59.659Z,3.22
2019-05-10T18:51:27.427Z,6.05
2019-05-10T18:53:55.231Z,3.30
2019-05-10T18:56:25.442Z,3.85
2019-05-10T18:58:52.716Z,3.98
2019-05-10T19:01:20.470Z,4.75
2019-05-10T19:03:48.236Z,5.00
2019-05-10T19:06:16.144Z,4.95
2019-05-10T19:08:44.453Z,7.20
2019-05-10T19:11:12.192Z,4.40
2019-05-10T19:13:46.649Z,5.22
2019-05-10T19:16:09.601Z,5.40
2019-05-10T19:18:37.359Z,4.60
2019-05-10T19:21:05.362Z,4.65
2019-05-10T19:23:33.456Z,5.05
2019-05-10T19:26:01.410Z,5.87
2019-05-10T19:28:31.395Z,6.17
2019-05-10T19:31:00.437Z,5.55
2019-05-10T19:33:36.008Z,5.47
2019-05-10T19:35:58.083Z,5.28
2019-05-10T19:38:25.833Z,6.12
2019-05-10T19:40:53.583Z,6.25
2019-05-10T19:43:22.246Z,5.03
2019-05-10T19:45:57.499Z,6.85
2019-05-10T19:48:20.802Z,5.92
2019-05-10T19:50:48.486Z,4.58
2019-05-10T19:53:16.288Z,7.25
2019-05-10T19:55:44.154Z,8.75
2019-05-10T19:58:11.823Z,5.00
2019-05-10T20:00:39.389Z,6.62
2019-05-10T20:03:07.077Z,3.67
2019-05-10T20:05:34.730Z,6.40
2019-05-10T20:08:02.491Z,5.75
2019-05-10T20:10:30.424Z,4.83
2019-05-10T20:12:58.095Z,4.80
2019-05-10T20:15:26.098Z,6.25
2019-05-10T20:17:53.800Z,5.78
2019-05-10T20:20:21.645Z,6.78
2019-05-10T20:22:49.372Z,4.25
2019-05-10T20:25:17.400Z,5.92
2019-05-10T20:27:45.526Z,3.83
2019-05-10T20:30:13.683Z,4.37
2019-05-10T20:32:41.710Z,6.42
2019-05-10T20:35:09.525Z,4.30
2019-05-10T20:37:37.311Z,4.15
2019-05-10T20:40:07.527Z,5.83
2019-05-10T20:42:35.264Z,5.67
2019-05-10T20:45:08.425Z,4.70
2019-05-10T20:47:33.471Z,3.55
2019-05-10T20:50:01.629Z,4.40
2019-05-10T20:52:29.399Z,4.83
2019-05-10T20:54:57.231Z,7.15
2019-05-10T20:57:25.332Z,3.30
2019-05-10T20:59:53.162Z,4.12
2019-05-10T21:02:20.923Z,7.45
2019-05-10T21:04:48.715Z,7.53
2019-05-10T21:07:16.474Z,6.00
2019-05-10T21:09:44.510Z,6.58
2019-05-10T21:12:12.482Z,5.55
2019-05-10T21:14:40.170Z,5.97
2019-05-10T21:17:09.349Z,7.20
2019-05-10T21:19:37.147Z,5.55
2019-05-10T21:22:05.250Z,5.95
2019-05-10T21:24:33.158Z,6.10
2019-05-10T21:27:00.803Z,4.75
2019-05-10T21:29:28.704Z,4.75
2019-05-10T21:31:56.482Z,4.97
2019-05-10T21:34:24.539Z,6.40
2019-05-10T21:36:52.815Z,9.05
2019-05-10T21:39:20.614Z,8.75
2019-05-10T21:41:48.308Z,4.65
2019-05-10T21:44:16.401Z,4.60
2019-05-10T21:46:44.306Z,3.70
2019-05-10T21:49:12.216Z,4.15
2019-05-10T21:51:39.871Z,4.12
2019-05-10T21:54:07.687Z,4.15
2019-05-10T21:56:36.361Z,3.58
2019-05-10T21:59:05.060Z,3.37
2019-05-10T22:01:34.130Z,4.33
2019-05-10T22:04:03.962Z,4.33
2019-05-10T22:06:33.057Z,4.70
2019-05-10T22:09:00.764Z,5.03
2019-05-10T22:11:28.579Z,3.62
2019-05-10T22:13:57.560Z,3.08
2019-05-10T22:16:26.419Z,3.60
2019-05-10T22:19:01.853Z,2.50
2019-05-10T22:21:29.915Z,5.70
2019-05-10T22:23:57.700Z,3.83
2019-05-10T22:26:25.576Z,3.95
2019-05-10T22:28:53.175Z,4.15
2019-05-10T22:31:20.935Z,3.02
2019-05-10T22:33:48.813Z,4.72
2019-05-10T22:36:16.595Z,5.92
2019-05-10T22:38:44.364Z,4.90
2019-05-10T22:41:12.109Z,6.75
2019-05-10T22:43:39.945Z,4.20
2019-05-10T22:46:07.754Z,10.35
2019-05-10T22:48:35.627Z,5.37
2019-05-10T22:51:03.296Z,4.60
2019-05-10T22:53:30.980Z,5.05
2019-05-10T22:55:59.235Z,5.20
2019-05-10T22:58:27.121Z,3.58
2019-05-10T23:00:54.810Z,5.55
2019-05-10T23:03:24.539Z,4.95
2019-05-10T23:05:52.528Z,4.75
2019-05-10T23:08:20.360Z,4.15
2019-05-10T23:10:48.137Z,4.30
2019-05-10T23:13:15.938Z,3.83
2019-05-10T23:15:43.708Z,4.03
2019-05-10T23:18:11.316Z,5.33
2019-05-10T23:20:39.073Z,4.12
2019-05-10T23:23:06.866Z,8.73
2019-05-10T23:25:34.565Z,4.15
2019-05-10T23:28:02.315Z,6.28
2019-05-10T23:30:30.238Z,3.37
2019-05-10T23:32:57.959Z,3.67
2019-05-10T23:35:28.548Z,4.00
2019-05-10T23:37:56.407Z,5.87
2019-05-10T23:40:24.129Z,4.65
2019-05-10T23:42:54.437Z,3.95
2019-05-10T23:45:22.209Z,3.17
2019-05-10T23:47:49.894Z,3.95
2019-05-10T23:50:17.697Z,3.83
2019-05-10T23:52:45.643Z,4.12
2019-05-10T23:55:13.324Z,4.12
2019-05-10T23:57:40.952Z,3.47
